To NAV CANADA Home Page Login to a new session Search on AWWS site Feedback and Comments Disclaimer Vers la page française équivalente Tips FAQ What's new on the site To the Forecasts and Observations / NOTAM section To "File a Flight Plan" website Publications and other links Update of the User's profile FIC Telephone Numbers My Weather Data Folder Route Weather Data Regional Weather Data Local Weather Data To the Forecasts and Observations / NOTAM section
Request Generated 04/18/2015 at 16:39:42 UTC . Weather information available at that time is displayed.

METAR/TAF

TORONTO/BILLY BISHOP TORONTO CITY AIRPORT/ON    (show WxCam)

METAR CYTZ 181600Z AUTO 33021G29KT 290V350 9SM CLR 19/M02 A3000 RMK
SLP161 DENSITY ALT 600FT=
METAR CYTZ 181500Z AUTO 31018G25KT 290V360 9SM CLR 21/04 A2997 RMK
SLP148 DENSITY ALT 900FT=
SPECI CYTZ 181410Z AUTO 29014G19KT 180V320 9SM CLR 15/05 A2995 RMK
SLP143 DENSITY ALT 300FT=
METAR CYTZ 181400Z AUTO 21004KT 150V270 9SM CLR 10/06 A2995 RMK
SLP145=

TAF AMD CYTZ 181407Z 1814/1914 23008KT P6SM SCT080
BECMG 1815/1816 32013G23KT
BECMG 1816/1818 34010G20KT
FM181900 34010G20KT P6SM SKC
BECMG 1900/1902 04010KT
BECMG 1912/1914 07012G22KT
RMK FCST BASED ON AUTO OBS. NXT FCST BY 182000Z=
Your time UTC time
Weather data provided by Environment Canada and NAV CANADA